Time;durP1;ratioP1;P1;durP2;ratioP2;P2;SDS_P1;SDS_P2;PMS_P1;PMS_P2;Temp;Humidity;BMP_temperature;BMP_pressure;BME280_temperature;BME280_humidity;BME280_pressure;Samples;Min_cycle;Max_cycle;Signal;HPM_P1;HPM_P2
2022/07/28 00:00:41;;;;;;;;;;;;;;;23.83;76.56;97914.75;5138460;27;19923;-64
2022/07/28 00:03:08;;;;;;;;;;;;;;;23.68;78.97;97910.06;5137101;28;19971;-64
2022/07/28 00:05:34;;;;;;;;;;;;;;;23.97;77.80;97912.41;5140834;28;19946;-63
2022/07/28 00:08:02;;;;;;;;;;;;;;;24.23;75.12;97916.63;5141931;28;19928;-64
2022/07/28 00:10:28;;;;;;;;;;;;;;;23.29;80.16;97913.59;5139582;28;19934;-64
2022/07/28 00:12:55;;;;;;;;;;;;;;;23.24;81.43;97906.44;5133049;28;19951;-63
2022/07/28 00:15:21;;;;;;;;;;;;;;;23.42;79.97;97910.53;5139556;28;19952;-64
2022/07/28 00:17:47;;;;;;;;;;;;;;;23.37;80.33;97902.56;5141971;28;19934;-64
2022/07/28 00:20:14;;;;;;;;;;;;;;;23.88;78.28;97897.34;5141661;28;19924;-64
2022/07/28 00:22:43;;;;;;;;;;;;;;;23.45;79.43;97903.59;5138255;28;19928;-64
2022/07/28 00:25:11;;;;;;;;;;;;;;;23.26;80.71;97904.19;5138269;28;19950;-64
2022/07/28 00:27:37;;;;;;;;;;;;;;;22.92;83.51;97902.00;5141672;28;19923;-64
2022/07/28 00:30:04;;;;;;;;;;;;;;;23.41;80.65;97903.47;5141938;28;19946;-65
2022/07/28 00:32:30;;;;;;;;;;;;;;;22.82;83.70;97900.53;5139083;28;19963;-64
2022/07/28 00:34:57;;;;;;;;;;;;;;;22.60;85.80;97892.81;5138218;28;20381;-64
2022/07/28 00:37:23;;;;;;;;;;;;;;;23.06;83.83;97894.25;5139584;28;19931;-65
2022/07/28 00:39:49;;;;;;;;;;;;;;;23.47;80.32;97888.47;5141682;28;19943;-64
2022/07/28 00:42:19;;;;;;;;;;;;;;;23.90;78.22;97895.06;5135778;28;19970;-65
2022/07/28 00:44:45;;;;;;;;;;;;;;;24.14;75.68;97890.28;5137853;28;19934;-64
2022/07/28 00:47:11;;;;;;;;;;;;;;;24.54;72.91;97887.34;5138159;28;19931;-64
2022/07/28 00:49:38;;;;;;;;;;;;;;;24.31;72.84;97891.06;5129560;28;19924;-64
2022/07/28 00:52:05;;;;;;;;;;;;;;;24.02;74.40;97897.72;5138059;28;19924;-64
2022/07/28 00:54:32;;;;;;;;;;;;;;;24.02;76.18;97887.59;5140725;28;19923;-63
2022/07/28 00:56:58;;;;;;;;;;;;;;;24.36;73.54;97883.41;5141483;28;19923;-65
2022/07/28 00:59:26;;;;;;;;;;;;;;;24.60;71.86;97885.91;5139720;28;19954;-64
2022/07/28 01:01:52;;;;;;;;;;;;;;;24.47;71.85;97889.94;5137840;28;19963;-63
2022/07/28 01:04:19;;;;;;;;;;;;;;;24.54;71.95;97887.34;5138760;28;19931;-64
2022/07/28 01:06:52;;;;;;;;;;;;;;;24.43;72.15;97886.31;5141299;28;19987;-64
2022/07/28 01:09:28;;;;;;;;;;;;;;;24.19;72.73;97886.50;5140545;28;19924;-63
2022/07/28 01:11:59;;;;;;;;;;;;;;;24.53;71.68;97876.78;5136431;28;19966;-64
2022/07/28 01:14:31;;;;;;;;;;;;;;;24.77;70.01;97873.03;5137565;28;19991;-63
2022/07/28 01:17:09;;;;;;;;;;;;;;;24.90;68.97;97872.59;5137665;28;19955;-64
2022/07/28 01:19:39;;;;;;;;;;;;;;;25.05;68.12;97873.69;5144399;27;19924;-64
2022/07/28 01:22:09;;;;;;;;;;;;;;;25.10;67.52;97876.13;5144895;27;19930;-63
2022/07/28 01:24:40;;;;;;;;;;;;;;;25.09;67.29;97872.63;5141781;27;20339;-64
2022/07/28 01:27:09;;;;;;;;;;;;;;;25.08;66.96;97872.97;5141430;27;19983;-64
2022/07/28 01:29:55;;;;;;;;;;;;;;;24.83;67.90;97871.63;5144458;27;19970;-64
2022/07/28 01:32:24;;;;;;;;;;;;;;;24.46;70.31;97868.44;5143351;27;19923;-66
2022/07/28 01:34:54;;;;;;;;;;;;;;;24.19;71.91;97867.41;5141192;27;19924;-64
2022/07/28 01:37:24;;;;;;;;;;;;;;;24.27;72.55;97860.97;5142116;27;19924;-65
2022/07/28 01:39:52;;;;;;;;;;;;;;;24.34;72.00;97865.81;5144718;27;19959;-63
2022/07/28 01:42:20;;;;;;;;;;;;;;;24.55;71.13;97866.28;5138263;27;19961;-65
2022/07/28 01:44:48;;;;;;;;;;;;;;;24.56;70.80;97863.22;5140784;27;19924;-65
2022/07/28 01:47:16;;;;;;;;;;;;;;;24.65;70.22;97865.75;5140051;27;20343;-64
2022/07/28 01:49:45;;;;;;;;;;;;;;;24.67;69.71;97866.19;5144411;27;20589;-65
2022/07/28 01:52:11;;;;;;;;;;;;;;;24.81;68.62;97858.34;5144441;27;19927;-64
2022/07/28 01:54:40;;;;;;;;;;;;;;;24.36;69.89;97850.66;5140769;27;19959;-63
2022/07/28 01:57:09;;;;;;;;;;;;;;;23.77;74.96;97847.22;5140818;27;19919;-64
2022/07/28 01:59:38;;;;;;;;;;;;;;;23.69;76.62;97848.16;5143927;27;20001;-63
2022/07/28 02:02:05;;;;;;;;;;;;;;;23.97;75.18;97849.69;5144130;27;19991;-64
2022/07/28 02:04:33;;;;;;;;;;;;;;;23.34;78.87;97843.28;5141148;27;19927;-64
2022/07/28 02:07:02;;;;;;;;;;;;;;;23.38;78.92;97840.66;5140697;27;19977;-64
2022/07/28 02:09:30;;;;;;;;;;;;;;;23.46;79.44;97837.81;5142606;27;19924;-64
2022/07/28 02:11:57;;;;;;;;;;;;;;;23.53;78.70;97843.47;5141060;27;19924;-65
2022/07/28 02:14:24;;;;;;;;;;;;;;;23.87;76.54;97843.94;5140412;27;19962;-65
2022/07/28 02:16:52;;;;;;;;;;;;;;;24.11;75.05;97841.88;5140458;27;19924;-64
2022/07/28 02:19:19;;;;;;;;;;;;;;;24.03;73.63;97845.53;5141164;27;19987;-64
2022/07/28 02:21:47;;;;;;;;;;;;;;;23.96;73.62;97852.75;5143798;27;19927;-64
2022/07/28 02:24:17;;;;;;;;;;;;;;;23.13;79.56;97845.41;5143659;27;19923;-63
2022/07/28 02:26:46;;;;;;;;;;;;;;;22.38;85.26;97847.00;5139918;27;19963;-63
2022/07/28 02:29:13;;;;;;;;;;;;;;;22.38;86.33;97836.94;5139806;27;19924;-64
2022/07/28 02:31:43;;;;;;;;;;;;;;;22.29;88.24;97830.81;5131815;27;19928;-64
2022/07/28 02:34:12;;;;;;;;;;;;;;;22.46;85.69;97837.97;5140089;27;19924;-64
2022/07/28 02:36:40;;;;;;;;;;;;;;;22.96;82.60;97838.31;5131621;27;19928;-65
2022/07/28 02:39:08;;;;;;;;;;;;;;;23.49;79.51;97830.88;5139984;27;19924;-64
2022/07/28 02:41:39;;;;;;;;;;;;;;;23.23;79.60;97839.50;5142874;27;19959;-64
2022/07/28 02:44:10;;;;;;;;;;;;;;;23.07;80.28;97836.72;5134251;27;19923;-65
2022/07/28 02:46:38;;;;;;;;;;;;;;;22.61;83.85;97842.69;5139577;27;20354;-64
2022/07/28 02:49:06;;;;;;;;;;;;;;;22.85;82.94;97836.44;5139709;27;19951;-63
2022/07/28 02:51:33;;;;;;;;;;;;;;;23.21;80.66;97836.31;5142115;27;20021;-63
2022/07/28 02:54:00;;;;;;;;;;;;;;;23.45;77.89;97838.19;5143162;27;20017;-64
2022/07/28 02:56:26;;;;;;;;;;;;;;;23.50;77.93;97838.72;5141004;27;19951;-64
2022/07/28 02:58:54;;;;;;;;;;;;;;;23.75;76.29;97833.09;5139462;27;19963;-64
2022/07/28 03:01:21;;;;;;;;;;;;;;;23.74;75.60;97840.50;5140399;27;19951;-64
2022/07/28 03:03:48;;;;;;;;;;;;;;;23.68;75.92;97841.91;5143020;27;19942;-64
2022/07/28 03:06:15;;;;;;;;;;;;;;;23.40;76.24;97850.09;5142772;27;19923;-64
2022/07/28 03:08:41;;;;;;;;;;;;;;;23.47;77.38;97844.84;5139255;27;20003;-64
2022/07/28 03:11:08;;;;;;;;;;;;;;;23.11;78.21;97858.59;5139247;27;19931;-64
2022/07/28 03:13:35;;;;;;;;;;;;;;;23.24;78.66;97860.13;5136922;27;19930;-65
2022/07/28 03:16:02;;;;;;;;;;;;;;;23.04;78.94;97859.19;5142914;27;20402;-64
2022/07/28 03:18:29;;;;;;;;;;;;;;;23.18;78.82;97864.25;5140209;27;19990;-63
2022/07/28 03:20:55;;;;;;;;;;;;;;;23.48;77.23;97859.28;5139124;27;19952;-63
2022/07/28 03:23:24;;;;;;;;;;;;;;;23.00;79.46;97868.38;5140175;27;19931;-64
2022/07/28 03:25:53;;;;;;;;;;;;;;;22.77;82.58;97870.03;5142639;27;19958;-64
2022/07/28 03:28:21;;;;;;;;;;;;;;;22.71;81.71;97872.22;5141635;27;19928;-64
2022/07/28 03:30:50;;;;;;;;;;;;;;;22.59;82.42;97872.19;5139006;27;20006;-64
2022/07/28 03:33:18;;;;;;;;;;;;;;;22.57;83.93;97867.09;5139351;27;19935;-64
2022/07/28 03:35:47;;;;;;;;;;;;;;;21.95;86.41;97874.75;5142381;27;19969;-63
2022/07/28 03:38:14;;;;;;;;;;;;;;;21.31;90.37;97877.16;5142320;27;19999;-64
2022/07/28 03:40:42;;;;;;;;;;;;;;;21.38;91.41;97867.34;5138075;27;20000;-64
2022/07/28 03:43:09;;;;;;;;;;;;;;;20.71;94.75;97866.72;5133078;27;19924;-64
2022/07/28 03:45:36;;;;;;;;;;;;;;;21.05;93.39;97863.75;5141600;27;19931;-63
2022/07/28 03:48:02;;;;;;;;;;;;;;;22.08;87.84;97865.50;5142201;27;19962;-64
2022/07/28 03:50:31;;;;;;;;;;;;;;;20.91;92.19;97860.53;5139701;27;19930;-64
2022/07/28 03:52:57;;;;;;;;;;;;;;;20.22;98.44;97860.91;5138577;27;19962;-63
2022/07/28 03:55:24;;;;;;;;;;;;;;;20.98;94.11;97860.78;5139936;27;19927;-63
2022/07/28 03:57:51;;;;;;;;;;;;;;;21.29;91.39;97861.16;5141999;27;19923;-64
2022/07/28 04:00:17;;;;;;;;;;;;;;;21.73;87.39;97864.25;5141528;27;19930;-64
2022/07/28 04:02:44;;;;;;;;;;;;;;;20.58;94.38;97856.94;5138115;27;19928;-64
2022/07/28 04:05:11;;;;;;;;;;;;;;;21.44;90.90;97859.78;5138551;28;19924;-63
2022/07/28 04:07:39;;;;;;;;;;;;;;;20.72;92.83;97846.59;5141707;28;19994;-64
2022/07/28 04:10:06;;;;;;;;;;;;;;;20.69;93.95;97849.97;5141943;28;19951;-64
2022/07/28 04:12:44;;;;;;;;;;;;;;;20.52;95.02;97855.53;5133429;28;19970;-64
2022/07/28 04:15:12;;;;;;;;;;;;;;;20.54;97.30;97853.28;5138519;28;19923;-64
2022/07/28 04:17:38;;;;;;;;;;;;;;;20.88;95.01;97850.31;5129918;28;19928;-64
2022/07/28 04:20:05;;;;;;;;;;;;;;;20.67;94.40;97844.09;5138553;28;19924;-64
2022/07/28 04:22:32;;;;;;;;;;;;;;;20.91;92.55;97850.47;5141087;28;19970;-64
2022/07/28 04:25:00;;;;;;;;;;;;;;;21.16;90.48;97848.69;5140551;28;19920;-64
2022/07/28 04:27:27;;;;;;;;;;;;;;;21.41;89.81;97857.72;5139645;28;19923;-64
2022/07/28 04:29:53;;;;;;;;;;;;;;;21.37;90.41;97862.22;5138237;28;19931;-63
2022/07/28 04:32:19;;;;;;;;;;;;;;;22.09;85.19;97850.78;5139036;28;19927;-63
2022/07/28 04:34:47;;;;;;;;;;;;;;;21.71;86.33;97853.72;5141618;28;20010;-64
2022/07/28 04:37:15;;;;;;;;;;;;;;;21.53;86.93;97857.78;5141346;28;19947;-63
2022/07/28 04:39:42;;;;;;;;;;;;;;;22.01;84.07;97849.72;5138068;28;19923;-65
2022/07/28 04:42:10;;;;;;;;;;;;;;;22.21;82.55;97856.22;5138141;28;19966;-64
2022/07/28 04:44:41;;;;;;;;;;;;;;;22.33;82.65;97856.22;5137795;28;19934;-64
2022/07/28 04:47:07;;;;;;;;;;;;;;;21.95;85.39;97855.72;5138289;28;20249;-63
2022/07/28 04:49:33;;;;;;;;;;;;;;;21.65;86.16;97857.00;5141022;28;19999;-64
2022/07/28 04:52:00;;;;;;;;;;;;;;;22.49;81.28;97859.84;5142826;27;19958;-64
2022/07/28 04:54:26;;;;;;;;;;;;;;;22.01;83.07;97859.81;5143669;27;20407;-64
2022/07/28 04:56:53;;;;;;;;;;;;;;;22.22;82.20;97852.34;5142217;27;19955;-65
2022/07/28 04:59:20;;;;;;;;;;;;;;;22.37;81.36;97851.69;5141607;27;19934;-63
2022/07/28 05:01:47;;;;;;;;;;;;;;;22.02;84.35;97861.41;5145443;27;20418;-64
2022/07/28 05:04:13;;;;;;;;;;;;;;;21.79;85.47;97863.72;5145459;27;19927;-65
2022/07/28 05:06:39;;;;;;;;;;;;;;;21.77;85.76;97863.25;5133395;27;19920;-64
2022/07/28 05:09:05;;;;;;;;;;;;;;;22.35;82.29;97853.94;5141607;27;19930;-63
2022/07/28 05:11:32;;;;;;;;;;;;;;;22.31;81.25;97855.75;5144160;27;19994;-65
2022/07/28 05:13:58;;;;;;;;;;;;;;;21.68;84.58;97867.19;5139584;27;20276;-64
2022/07/28 05:16:26;;;;;;;;;;;;;;;21.23;88.13;97857.06;5143148;27;19966;-64
2022/07/28 05:18:52;;;;;;;;;;;;;;;21.38;88.55;97869.25;5141402;27;19924;-64
2022/07/28 05:21:19;;;;;;;;;;;;;;;21.09;89.80;97856.56;5142035;27;19945;-64
2022/07/28 05:23:45;;;;;;;;;;;;;;;20.87;90.69;97865.00;5144838;27;19935;-65
2022/07/28 05:26:13;;;;;;;;;;;;;;;21.23;89.18;97870.66;5144924;27;19927;-64
2022/07/28 05:28:39;;;;;;;;;;;;;;;20.98;90.45;97871.66;5132976;27;19924;-63
2022/07/28 05:31:06;;;;;;;;;;;;;;;20.98;90.81;97868.94;5141332;27;19997;-63
2022/07/28 05:33:34;;;;;;;;;;;;;;;21.60;86.67;97873.53;5143814;27;19923;-63
2022/07/28 05:36:01;;;;;;;;;;;;;;;21.81;85.66;97872.34;5145055;27;19924;-64
2022/07/28 05:38:27;;;;;;;;;;;;;;;21.70;86.03;97875.81;5142663;27;20022;-64
2022/07/28 05:40:54;;;;;;;;;;;;;;;22.00;83.57;97878.03;5141081;27;19963;-64
2022/07/28 05:43:21;;;;;;;;;;;;;;;21.88;84.61;97886.19;5136344;27;19978;-64
2022/07/28 05:45:47;;;;;;;;;;;;;;;21.73;86.12;97881.38;5144404;27;19965;-64
2022/07/28 05:48:16;;;;;;;;;;;;;;;21.65;86.62;97882.25;5144421;27;19958;-64
2022/07/28 05:50:43;;;;;;;;;;;;;;;22.13;84.13;97878.84;5140633;27;19928;-63
2022/07/28 05:53:10;;;;;;;;;;;;;;;21.83;85.94;97880.16;5140935;27;20450;-64
2022/07/28 05:55:36;;;;;;;;;;;;;;;22.45;81.25;97882.63;5143917;27;19924;-64
2022/07/28 05:58:03;;;;;;;;;;;;;;;22.60;79.79;97884.66;5144286;27;19974;-64
2022/07/28 06:00:31;;;;;;;;;;;;;;;22.38;80.69;97885.91;5141769;27;19927;-64
2022/07/28 06:03:00;;;;;;;;;;;;;;;21.82;85.04;97887.50;5140332;27;19973;-64
2022/07/28 06:05:27;;;;;;;;;;;;;;;21.91;85.75;97890.19;5141725;27;20473;-64
2022/07/28 06:07:55;;;;;;;;;;;;;;;22.27;83.52;97884.78;5143862;27;20014;-64
2022/07/28 06:10:22;;;;;;;;;;;;;;;23.08;78.57;97886.53;5142706;27;19923;-65
2022/07/28 06:12:49;;;;;;;;;;;;;;;23.52;74.70;97885.47;5134738;27;20056;-65
2022/07/28 06:15:17;;;;;;;;;;;;;;;23.32;75.12;97878.28;5139462;27;19923;-64
2022/07/28 06:17:43;;;;;;;;;;;;;;;23.13;76.23;97881.63;5142634;27;19930;-65
2022/07/28 06:20:10;;;;;;;;;;;;;;;23.36;75.31;97887.34;5143732;27;19954;-66
2022/07/28 06:22:40;;;;;;;;;;;;;;;23.85;73.33;97887.94;5140329;27;19930;-64
2022/07/28 06:25:11;;;;;;;;;;;;;;;24.02;71.38;97881.34;5140180;27;19959;-64
2022/07/28 06:27:37;;;;;;;;;;;;;;;24.33;69.41;97902.41;5143635;27;19923;-64
2022/07/28 06:30:04;;;;;;;;;;;;;;;24.34;68.86;97902.09;5143779;27;19949;-64
2022/07/28 06:32:30;;;;;;;;;;;;;;;24.52;68.17;97894.31;5141023;27;19934;-64
2022/07/28 06:34:57;;;;;;;;;;;;;;;24.51;67.89;97893.50;5140251;27;19924;-64
2022/07/28 06:37:24;;;;;;;;;;;;;;;24.95;66.22;97888.69;5141388;27;19992;-64
2022/07/28 06:39:50;;;;;;;;;;;;;;;25.27;64.80;97896.78;5143481;27;19928;-63
2022/07/28 06:42:18;;;;;;;;;;;;;;;25.47;63.89;97896.44;5137580;27;19935;-65
2022/07/28 06:44:44;;;;;;;;;;;;;;;25.61;62.77;97895.94;5139482;27;19934;-64
2022/07/28 06:47:10;;;;;;;;;;;;;;;25.51;62.80;97894.59;5139864;27;19935;-64
2022/07/28 06:49:37;;;;;;;;;;;;;;;25.37;63.33;97897.03;5142957;27;19923;-64
2022/07/28 06:52:03;;;;;;;;;;;;;;;25.10;63.62;97892.53;5143194;27;20394;-65
2022/07/28 06:54:30;;;;;;;;;;;;;;;25.13;64.17;97891.81;5140917;27;20019;-63
2022/07/28 06:56:56;;;;;;;;;;;;;;;25.07;64.49;97899.50;5139730;27;19924;-64
2022/07/28 06:59:24;;;;;;;;;;;;;;;25.57;63.73;97900.56;5140703;27;19924;-65
2022/07/28 07:01:50;;;;;;;;;;;;;;;25.51;63.54;97894.59;5143061;27;20025;-63
2022/07/28 07:04:17;;;;;;;;;;;;;;;25.17;63.58;97893.47;5142478;27;19924;-64
2022/07/28 07:06:43;;;;;;;;;;;;;;;25.68;63.38;97891.44;5139506;27;19924;-65
2022/07/28 07:09:10;;;;;;;;;;;;;;;26.06;61.19;97900.69;5139467;27;19920;-64
2022/07/28 07:11:36;;;;;;;;;;;;;;;26.11;61.70;97892.19;5142059;27;19987;-64
2022/07/28 07:14:03;;;;;;;;;;;;;;;26.12;59.87;97891.03;5137642;27;19928;-63
2022/07/28 07:16:30;;;;;;;;;;;;;;;26.05;60.94;97882.69;5139569;27;19923;-64
2022/07/28 07:18:57;;;;;;;;;;;;;;;26.16;60.08;97894.63;5139356;27;19924;-64
2022/07/28 07:21:23;;;;;;;;;;;;;;;26.36;60.27;97884.44;5140567;27;19924;-65
2022/07/28 07:23:50;;;;;;;;;;;;;;;25.84;60.41;97885.06;5142732;27;19966;-63
2022/07/28 07:26:16;;;;;;;;;;;;;;;25.76;59.87;97884.13;5142377;27;19923;-64
2022/07/28 07:28:42;;;;;;;;;;;;;;;26.21;60.76;97877.94;5139022;27;19924;-65
2022/07/28 07:31:09;;;;;;;;;;;;;;;26.49;59.55;97874.84;5139191;27;20144;-64
2022/07/28 07:33:36;;;;;;;;;;;;;;;26.46;59.70;97870.13;5142069;27;19923;-65
2022/07/28 07:36:03;;;;;;;;;;;;;;;26.37;59.08;97867.63;5142455;27;19961;-65
2022/07/28 07:38:29;;;;;;;;;;;;;;;26.90;57.72;97870.38;5140124;27;19963;-63
2022/07/28 07:40:56;;;;;;;;;;;;;;;25.93;58.78;97874.66;5139068;27;19931;-63
2022/07/28 07:43:22;;;;;;;;;;;;;;;25.04;61.39;97872.91;5134417;27;19928;-64
2022/07/28 07:45:48;;;;;;;;;;;;;;;24.85;63.41;97869.38;5142027;27;20000;-65
2022/07/28 07:48:15;;;;;;;;;;;;;;;24.71;63.55;97867.88;5142228;27;19938;-64
2022/07/28 07:50:43;;;;;;;;;;;;;;;24.54;65.08;97864.72;5138826;27;19935;-64
2022/07/28 07:53:09;;;;;;;;;;;;;;;24.90;64.02;97861.69;5138819;27;19950;-65
2022/07/28 07:55:35;;;;;;;;;;;;;;;24.68;64.54;97865.84;5141596;27;20010;-64
2022/07/28 07:58:02;;;;;;;;;;;;;;;24.85;63.98;97864.66;5142267;27;19959;-64
2022/07/28 08:00:28;;;;;;;;;;;;;;;24.78;64.53;97869.16;5139839;27;19974;-64
2022/07/28 08:02:55;;;;;;;;;;;;;;;26.09;62.03;97856.19;5138401;27;20122;-64
2022/07/28 08:05:21;;;;;;;;;;;;;;;25.80;60.30;97867.78;5139324;27;19928;-64
2022/07/28 08:07:49;;;;;;;;;;;;;;;26.02;59.11;97856.06;5141825;28;20109;-64
2022/07/28 08:10:15;;;;;;;;;;;;;;;25.90;60.25;97861.72;5141750;28;19923;-64
2022/07/28 08:12:41;;;;;;;;;;;;;;;25.70;60.27;97852.75;5132795;28;20378;-64
2022/07/28 08:15:08;;;;;;;;;;;;;;;25.34;61.12;97859.47;5138421;28;19928;-64
2022/07/28 08:17:34;;;;;;;;;;;;;;;24.93;63.18;97855.50;5141234;28;19938;-65
2022/07/28 08:20:02;;;;;;;;;;;;;;;25.12;62.52;97850.03;5141973;28;19923;-64
2022/07/28 08:22:29;;;;;;;;;;;;;;;24.91;63.35;97852.34;5139404;28;19931;-64
2022/07/28 08:24:59;;;;;;;;;;;;;;;25.31;63.78;97854.72;5138336;28;19997;-64
2022/07/28 08:27:25;;;;;;;;;;;;;;;25.26;62.30;97860.47;5141684;27;20006;-64
2022/07/28 08:29:51;;;;;;;;;;;;;;;25.08;62.84;97854.63;5146191;27;19923;-63
2022/07/28 08:32:18;;;;;;;;;;;;;;;25.62;61.38;97849.13;5145346;27;19924;-64
2022/07/28 08:34:44;;;;;;;;;;;;;;;24.97;63.15;97850.91;5142457;27;20417;-65
2022/07/28 08:37:10;;;;;;;;;;;;;;;24.59;63.32;97856.25;5142345;27;19935;-65
2022/07/28 08:39:37;;;;;;;;;;;;;;;24.98;62.75;97857.13;5145675;27;19970;-65
2022/07/28 08:42:06;;;;;;;;;;;;;;;26.40;59.91;97847.72;5141806;27;19988;-65
2022/07/28 08:44:45;;;;;;;;;;;;;;;25.59;59.89;97854.50;5140489;27;19923;-64
2022/07/28 08:47:12;;;;;;;;;;;;;;;25.40;60.89;97859.97;5142191;27;19974;-65
2022/07/28 08:49:40;;;;;;;;;;;;;;;24.96;61.27;97849.31;5145357;27;19962;-65
2022/07/28 08:52:09;;;;;;;;;;;;;;;24.67;62.92;97861.50;5145561;27;19963;-64
2022/07/28 08:54:36;;;;;;;;;;;;;;;24.82;62.78;97849.00;5142570;27;19983;-65
2022/07/28 08:57:03;;;;;;;;;;;;;;;24.83;63.54;97845.13;5142287;27;19928;-64
2022/07/28 08:59:31;;;;;;;;;;;;;;;24.76;63.26;97855.09;5143799;27;19991;-64
2022/07/28 09:01:57;;;;;;;;;;;;;;;25.08;63.07;97851.91;5145383;27;19928;-64
2022/07/28 09:04:24;;;;;;;;;;;;;;;25.28;62.20;97849.97;5143886;27;19923;-64
2022/07/28 09:06:50;;;;;;;;;;;;;;;25.12;63.03;97844.59;5141944;27;19924;-65
2022/07/28 09:09:17;;;;;;;;;;;;;;;25.24;63.13;97843.63;5142301;27;19963;-64
2022/07/28 09:11:43;;;;;;;;;;;;;;;25.04;63.55;97848.31;5144082;27;19924;-64
2022/07/28 09:14:09;;;;;;;;;;;;;;;25.03;63.93;97835.81;5141181;27;19923;-65
2022/07/28 09:16:37;;;;;;;;;;;;;;;25.08;64.41;97842.91;5142089;27;19951;-64
2022/07/28 09:19:04;;;;;;;;;;;;;;;25.05;64.23;97840.91;5141751;27;19923;-64
2022/07/28 09:21:30;;;;;;;;;;;;;;;25.11;63.67;97848.44;5143740;27;19959;-64
2022/07/28 09:23:57;;;;;;;;;;;;;;;25.39;63.29;97840.03;5145061;27;19951;-64
2022/07/28 09:26:23;;;;;;;;;;;;;;;25.32;62.97;97834.41;5143707;27;19927;-65
2022/07/28 09:28:51;;;;;;;;;;;;;;;25.54;62.77;97836.44;5141579;27;19924;-65
2022/07/28 09:31:17;;;;;;;;;;;;;;;26.66;59.58;97842.25;5141892;27;19924;-64
2022/07/28 09:34:00;;;;;;;;;;;;;;;27.09;57.75;97824.44;5144813;27;19924;-64
2022/07/28 09:36:26;;;;;;;;;;;;;;;26.47;58.20;97828.66;5142909;27;19997;-65
2022/07/28 09:38:54;;;;;;;;;;;;;;;27.20;57.44;97821.84;5140223;27;19959;-64
2022/07/28 09:41:21;;;;;;;;;;;;;;;26.91;57.33;97823.44;5142076;27;19920;-64
2022/07/28 09:43:47;;;;;;;;;;;;;;;27.39;56.78;97824.38;5138905;27;19980;-64
2022/07/28 09:46:14;;;;;;;;;;;;;;;27.30;55.04;97819.22;5144450;27;20674;-63
2022/07/28 09:48:55;;;;;;;;;;;;;;;27.36;55.99;97811.44;5132860;27;19924;-64
2022/07/28 09:51:23;;;;;;;;;;;;;;;26.87;56.97;97819.06;5141940;27;19923;-65
2022/07/28 09:53:49;;;;;;;;;;;;;;;26.73;57.11;97819.63;5144553;27;19954;-65
2022/07/28 09:56:16;;;;;;;;;;;;;;;26.60;57.28;97816.34;5144150;27;19965;-64
2022/07/28 09:58:52;;;;;;;;;;;;;;;26.88;56.92;97815.16;5140609;27;20197;-64
2022/07/28 10:01:19;;;;;;;;;;;;;;;27.25;55.78;97805.84;5141158;27;19923;-64
2022/07/28 10:03:49;;;;;;;;;;;;;;;27.21;56.47;97809.69;5144180;27;19928;-64
2022/07/28 10:06:16;;;;;;;;;;;;;;;27.44;54.96;97793.13;5144046;27;19951;-65
2022/07/28 10:08:45;;;;;;;;;;;;;;;27.32;55.85;97796.91;5140591;27;19928;-65
2022/07/28 10:11:12;;;;;;;;;;;;;;;27.35;55.76;97796.97;5140678;27;19924;-65
2022/07/28 10:13:52;;;;;;;;;;;;;;;27.95;54.36;97793.22;5138245;27;19962;-64
2022/07/28 10:16:19;;;;;;;;;;;;;;;28.13;54.23;97794.97;5143379;27;19986;-64
2022/07/28 10:18:47;;;;;;;;;;;;;;;28.22;53.18;97789.97;5140240;27;19928;-64
2022/07/28 10:21:14;;;;;;;;;;;;;;;27.60;54.29;97797.25;5140277;27;19928;-65
2022/07/28 10:23:45;;;;;;;;;;;;;;;27.42;55.31;97785.25;5131895;27;19966;-65
2022/07/28 10:26:14;;;;;;;;;;;;;;;27.92;54.35;97785.75;5140295;27;19958;-64
2022/07/28 10:28:43;;;;;;;;;;;;;;;27.53;54.60;97779.91;5131979;27;19924;-65
2022/07/28 10:31:10;;;;;;;;;;;;;;;27.55;54.21;97781.09;5140212;27;19966;-64
2022/07/28 10:33:39;;;;;;;;;;;;;;;27.35;54.61;97774.22;5143280;27;20380;-64
2022/07/28 10:36:06;;;;;;;;;;;;;;;27.16;55.25;97775.19;5143606;27;19982;-65
2022/07/28 10:38:33;;;;;;;;;;;;;;;26.70;56.14;97787.50;5140746;27;19931;-64
2022/07/28 10:41:02;;;;;;;;;;;;;;;26.96;56.40;97775.72;5140010;27;19924;-64
2022/07/28 10:43:30;;;;;;;;;;;;;;;27.92;54.82;97770.06;5135905;27;19924;-65
2022/07/28 10:45:57;;;;;;;;;;;;;;;28.18;53.32;97766.38;5143115;27;20423;-64
2022/07/28 10:48:24;;;;;;;;;;;;;;;27.64;53.27;97767.06;5142039;27;19935;-64
2022/07/28 10:50:51;;;;;;;;;;;;;;;27.42;53.92;97760.56;5139711;27;19951;-66
2022/07/28 10:53:25;;;;;;;;;;;;;;;27.61;54.03;97765.88;5140194;27;19920;-65
2022/07/28 10:55:54;;;;;;;;;;;;;;;27.52;53.75;97761.88;5142874;27;19962;-65
2022/07/28 10:58:36;;;;;;;;;;;;;;;27.50;53.41;97767.75;5141256;27;20212;-65
2022/07/28 11:01:04;;;;;;;;;;;;;;;27.95;52.72;97769.31;5139532;27;19927;-64
2022/07/28 11:03:38;;;;;;;;;;;;;;;28.06;52.51;97759.25;5141539;27;19923;-65
2022/07/28 11:06:23;;;;;;;;;;;;;;;27.85;51.94;97759.06;5142778;27;19924;-64
2022/07/28 11:08:51;;;;;;;;;;;;;;;27.63;52.13;97749.84;5132332;27;19955;-65
2022/07/28 11:11:42;;;;;;;;;;;;;;;27.76;52.41;97756.59;5139875;27;19950;-65
2022/07/28 11:14:28;;;;;;;;;;;;;;;27.89;50.40;97746.13;5134416;27;19923;-65
2022/07/28 11:17:10;;;;;;;;;;;;;;;27.68;50.30;97760.47;5133050;27;19945;-65
2022/07/28 11:19:51;;;;;;;;;;;;;;;28.11;50.66;97749.84;5142185;27;19995;-65
2022/07/28 11:22:23;;;;;;;;;;;;;;;27.98;50.84;97756.81;5142220;27;19986;-65
2022/07/28 11:25:08;;;;;;;;;;;;;;;27.92;50.19;97756.34;5138966;27;19931;-64
2022/07/28 11:27:53;;;;;;;;;;;;;;;27.97;50.32;97745.03;5141784;27;19985;-64
2022/07/28 11:30:34;;;;;;;;;;;;;;;27.92;50.24;97750.06;5141676;27;19990;-64
2022/07/28 11:33:01;;;;;;;;;;;;;;;28.05;50.14;97740.38;5138636;27;19945;-65
2022/07/28 11:35:29;;;;;;;;;;;;;;;28.11;49.50;97741.59;5140383;27;20580;-65
2022/07/28 11:38:09;;;;;;;;;;;;;;;28.03;49.32;97729.78;5142326;27;19923;-64
2022/07/28 11:40:37;;;;;;;;;;;;;;;27.72;50.00;97733.84;5139165;27;19959;-65
2022/07/28 11:43:22;;;;;;;;;;;;;;;27.55;50.10;97742.69;5133155;27;19924;-64
2022/07/28 11:45:49;;;;;;;;;;;;;;;27.76;50.09;97739.38;5131353;27;19932;-65
2022/07/28 11:48:16;;;;;;;;;;;;;;;27.91;49.38;97734.78;5138869;27;19924;-65
2022/07/28 11:51:04;;;;;;;;;;;;;;;27.94;49.49;97728.53;5142219;27;19965;-66
2022/07/28 11:53:32;;;;;;;;;;;;;;;27.79;48.78;97739.38;5139828;27;19923;-65
2022/07/28 11:55:58;;;;;;;;;;;;;;;27.65;49.28;97739.28;5138841;27;19994;-65
2022/07/28 11:58:25;;;;;;;;;;;;;;;27.90;47.76;97733.97;5139946;27;19987;-65
2022/07/28 12:01:06;;;;;;;;;;;;;;;28.20;47.09;97728.34;5142015;27;19963;-65
2022/07/28 12:03:32;;;;;;;;;;;;;;;28.12;47.00;97724.75;5139292;27;19930;-65
2022/07/28 12:06:00;;;;;;;;;;;;;;;28.37;46.50;97731.22;5138541;27;19967;-64
2022/07/28 12:08:27;;;;;;;;;;;;;;;28.09;45.68;97722.78;5140081;27;19955;-66
2022/07/28 12:10:54;;;;;;;;;;;;;;;28.15;45.59;97712.22;5141844;28;20319;-64
2022/07/28 12:13:25;;;;;;;;;;;;;;;28.16;46.14;97717.31;5133061;28;19963;-66
2022/07/28 12:15:52;;;;;;;;;;;;;;;28.31;46.32;97719.00;5141821;28;20033;-65
2022/07/28 12:18:18;;;;;;;;;;;;;;;28.54;46.35;97712.44;5141169;28;19939;-65
2022/07/28 12:20:46;;;;;;;;;;;;;;;28.47;46.26;97713.22;5138016;28;19924;-64
2022/07/28 12:23:13;;;;;;;;;;;;;;;28.67;45.27;97709.00;5138297;28;19974;-64
2022/07/28 12:25:41;;;;;;;;;;;;;;;28.83;45.86;97701.22;5129616;28;19924;-65
2022/07/28 12:28:17;;;;;;;;;;;;;;;28.66;44.96;97704.66;5138137;28;20203;-65
2022/07/28 12:30:44;;;;;;;;;;;;;;;28.52;44.98;97704.59;5130256;28;19947;-65
2022/07/28 12:33:18;;;;;;;;;;;;;;;28.70;45.26;97705.47;5137203;28;19923;-66
2022/07/28 12:35:44;;;;;;;;;;;;;;;28.80;44.51;97687.47;5130202;28;19970;-64
2022/07/28 12:38:11;;;;;;;;;;;;;;;28.50;44.33;97704.19;5138200;28;19962;-64
2022/07/28 12:40:39;;;;;;;;;;;;;;;28.45;44.63;97707.28;5141122;28;19983;-65
2022/07/28 12:43:05;;;;;;;;;;;;;;;28.25;45.09;97701.31;5134440;28;19966;-64
2022/07/28 12:45:32;;;;;;;;;;;;;;;28.27;45.21;97707.22;5140144;28;19924;-65
2022/07/28 12:48:05;;;;;;;;;;;;;;;28.27;44.48;97692.69;5141807;28;19924;-64
2022/07/28 12:50:37;;;;;;;;;;;;;;;28.22;44.01;97691.09;5139202;28;19931;-65
2022/07/28 12:53:04;;;;;;;;;;;;;;;28.25;44.26;97684.03;5137994;28;19924;-63